Time,TemperatureF,DewpointF,PressureIn,WindDirection,WindDirectionDegrees,WindSpeedMPH,WindSpeedGustMPH,Humidity,HourlyPrecipIn,Conditions,Clouds,dailyrainin,SoftwareType,DateUTC
2013-11-30 00:12:00,-999.0,-99.9,30.13,North,-999,-999.0,-999.0,-999,-99.99,,,0.00,weatherlink.com 1.10,2013-11-30 05:12:00,
2013-11-30 00:27:00,-999.0,-99.9,30.13,North,-999,-999.0,-999.0,-999,-99.99,,,0.00,weatherlink.com 1.10,2013-11-30 05:27:00,
2013-11-30 00:42:00,-999.0,-99.9,30.13,North,-999,-999.0,-999.0,-999,-99.99,,,0.00,weatherlink.com 1.10,2013-11-30 05:42:00,
2013-11-30 00:57:00,-999.0,-99.9,30.13,North,-999,-999.0,-999.0,-999,-99.99,,,0.00,weatherlink.com 1.10,2013-11-30 05:57:00,
2013-11-30 01:12:00,-999.0,-99.9,30.13,North,-999,-999.0,-999.0,-999,-99.99,,,0.00,weatherlink.com 1.10,2013-11-30 06:12:00,
2013-11-30 01:27:00,-999.0,-99.9,30.11,North,-999,-999.0,-999.0,-999,-99.99,,,0.00,weatherlink.com 1.10,2013-11-30 06:27:00,
2013-11-30 01:42:00,-999.0,-99.9,30.11,North,-999,-999.0,-999.0,-999,-99.99,,,0.00,weatherlink.com 1.10,2013-11-30 06:42:00,
2013-11-30 01:57:00,-999.0,-99.9,30.11,North,-999,-999.0,-999.0,-999,-99.99,,,0.00,weatherlink.com 1.10,2013-11-30 06:57:00,
2013-11-30 02:12:00,-999.0,-99.9,30.11,North,-999,-999.0,-999.0,-999,-99.99,,,0.00,weatherlink.com 1.10,2013-11-30 07:12:00,
2013-11-30 02:27:00,-999.0,-99.9,30.11,North,-999,-999.0,-999.0,-999,-99.99,,,0.00,weatherlink.com 1.10,2013-11-30 07:27:00,
2013-11-30 02:42:00,-999.0,-99.9,30.11,North,-999,-999.0,-999.0,-999,-99.99,,,0.00,weatherlink.com 1.10,2013-11-30 07:42:00,
2013-11-30 02:57:00,-999.0,-99.9,30.11,North,-999,-999.0,-999.0,-999,-99.99,,,0.00,weatherlink.com 1.10,2013-11-30 07:57:00,
2013-11-30 03:12:00,-999.0,-99.9,30.10,North,-999,-999.0,-999.0,-999,-99.99,,,0.00,weatherlink.com 1.10,2013-11-30 08:12:00,
2013-11-30 03:27:00,-999.0,-99.9,30.10,North,-999,-999.0,-999.0,-999,-99.99,,,0.00,weatherlink.com 1.10,2013-11-30 08:27:00,
2013-11-30 03:42:00,-999.0,-99.9,30.10,North,-999,-999.0,-999.0,-999,-99.99,,,0.00,weatherlink.com 1.10,2013-11-30 08:42:00,
2013-11-30 03:58:00,-999.0,-99.9,30.10,North,-999,-999.0,-999.0,-999,-99.99,,,0.00,weatherlink.com 1.10,2013-11-30 08:58:00,
2013-11-30 04:12:00,-999.0,-99.9,30.10,North,-999,-999.0,-999.0,-999,-99.99,,,0.00,weatherlink.com 1.10,2013-11-30 09:12:00,
2013-11-30 04:27:00,-999.0,-99.9,30.10,North,-999,-999.0,-999.0,-999,-99.99,,,0.00,weatherlink.com 1.10,2013-11-30 09:27:00,
2013-11-30 04:42:00,-999.0,-99.9,30.10,North,-999,-999.0,-999.0,-999,-99.99,,,0.00,weatherlink.com 1.10,2013-11-30 09:42:00,
2013-11-30 04:57:00,-999.0,-99.9,30.10,North,-999,-999.0,-999.0,-999,-99.99,,,0.00,weatherlink.com 1.10,2013-11-30 09:57:00,
2013-11-30 05:12:00,-999.0,-99.9,30.10,North,-999,-999.0,-999.0,-999,-99.99,,,0.00,weatherlink.com 1.10,2013-11-30 10:12:00,
2013-11-30 05:27:00,-999.0,-99.9,30.10,North,-999,-999.0,-999.0,-999,-99.99,,,0.00,weatherlink.com 1.10,2013-11-30 10:27:00,
2013-11-30 05:42:00,-999.0,-99.9,30.10,North,-999,-999.0,-999.0,-999,-99.99,,,0.00,weatherlink.com 1.10,2013-11-30 10:42:00,
2013-11-30 05:57:00,-999.0,-99.9,30.10,North,-999,-999.0,-999.0,-999,-99.99,,,0.00,weatherlink.com 1.10,2013-11-30 10:57:00,
2013-11-30 06:12:00,-999.0,-99.9,30.10,North,-999,-999.0,-999.0,-999,-99.99,,,0.00,weatherlink.com 1.10,2013-11-30 11:12:00,
2013-11-30 06:27:00,-999.0,-99.9,30.10,North,-999,-999.0,-999.0,-999,-99.99,,,0.00,weatherlink.com 1.10,2013-11-30 11:27:00,
2013-11-30 06:42:00,-999.0,-99.9,30.10,North,-999,-999.0,-999.0,-999,-99.99,,,0.00,weatherlink.com 1.10,2013-11-30 11:42:00,
2013-11-30 06:57:00,-999.0,-99.9,30.11,North,-999,-999.0,-999.0,-999,-99.99,,,0.00,weatherlink.com 1.10,2013-11-30 11:57:00,
2013-11-30 07:12:00,-999.0,-99.9,30.11,North,-999,-999.0,-999.0,-999,-99.99,,,0.00,weatherlink.com 1.10,2013-11-30 12:12:00,
2013-11-30 07:27:00,-999.0,-99.9,30.11,North,-999,-999.0,-999.0,-999,-99.99,,,0.00,weatherlink.com 1.10,2013-11-30 12:27:00,
2013-11-30 07:42:00,-999.0,-99.9,30.12,North,-999,-999.0,-999.0,-999,-99.99,,,0.00,weatherlink.com 1.10,2013-11-30 12:42:00,
2013-11-30 07:57:00,-999.0,-99.9,30.12,North,-999,-999.0,-999.0,-999,-99.99,,,0.00,weatherlink.com 1.10,2013-11-30 12:57:00,
2013-11-30 08:12:00,-999.0,-99.9,30.12,North,-999,-999.0,-999.0,-999,-99.99,,,0.00,weatherlink.com 1.10,2013-11-30 13:12:00,
2013-11-30 08:27:00,65.3,62.0,30.12,North,360,6.0,-999.0,90,-99.99,,,0.00,weatherlink.com 1.10,2013-11-30 13:27:00,
2013-11-30 08:42:00,66.9,63.0,30.13,NNW,327,2.0,-999.0,88,-99.99,,,0.00,weatherlink.com 1.10,2013-11-30 13:42:00,
2013-11-30 08:57:00,68.9,64.0,30.13,North,360,1.0,-999.0,84,-99.99,,,0.00,weatherlink.com 1.10,2013-11-30 13:57:00,
2013-11-30 09:12:00,71.1,65.0,30.13,NNW,332,3.0,-999.0,80,-99.99,,,0.00,weatherlink.com 1.10,2013-11-30 14:12:00,
2013-11-30 09:27:00,72.8,65.0,30.13,North,360,4.0,-999.0,77,-99.99,,,0.00,weatherlink.com 1.10,2013-11-30 14:27:00,
2013-11-30 09:42:00,74.0,66.0,30.13,North,360,4.0,-999.0,75,-99.99,,,0.00,weatherlink.com 1.10,2013-11-30 14:42:00,
2013-11-30 09:57:00,74.0,66.0,30.13,North,360,4.0,-999.0,76,-99.99,,,0.00,weatherlink.com 1.10,2013-11-30 14:57:00,
2013-11-30 10:12:00,75.4,67.0,30.13,NNE,19,0.0,-999.0,76,-99.99,,,0.00,weatherlink.com 1.10,2013-11-30 15:12:00,
2013-11-30 10:27:00,78.5,70.0,30.13,NE,53,4.0,-999.0,74,-99.99,,,0.00,weatherlink.com 1.10,2013-11-30 15:27:00,
2013-11-30 10:42:00,77.7,68.0,30.13,NNE,25,7.0,-999.0,73,-99.99,,,0.00,weatherlink.com 1.10,2013-11-30 15:42:00,
2013-11-30 10:57:00,78.5,68.0,30.12,NE,55,6.0,-999.0,71,-99.99,,,0.00,weatherlink.com 1.10,2013-11-30 15:57:00,
2013-11-30 11:12:00,78.8,68.0,30.11,ENE,59,11.0,-999.0,70,-99.99,,,0.00,weatherlink.com 1.10,2013-11-30 16:12:00,
2013-11-30 11:27:00,79.2,68.0,30.11,East,95,6.0,-999.0,69,-99.99,,,0.00,weatherlink.com 1.10,2013-11-30 16:27:00,
2013-11-30 11:42:00,79.4,69.0,30.10,ENE,65,10.0,-999.0,70,-99.99,,,0.00,weatherlink.com 1.10,2013-11-30 16:42:00,
2013-11-30 11:57:00,79.8,69.0,30.10,ENE,63,7.0,-999.0,70,-99.99,,,0.00,weatherlink.com 1.10,2013-11-30 16:57:00,
2013-11-30 12:12:00,80.1,69.0,30.09,ENE,66,10.0,-999.0,69,-99.99,,,0.00,weatherlink.com 1.10,2013-11-30 17:12:00,
2013-11-30 12:27:00,80.3,69.0,30.08,NE,40,5.0,-999.0,68,-99.99,,,0.00,weatherlink.com 1.10,2013-11-30 17:27:00,
2013-11-30 12:42:00,76.7,69.0,30.08,East,86,11.0,-999.0,76,-99.99,,,0.00,weatherlink.com 1.10,2013-11-30 17:42:00,
2013-11-30 12:58:00,74.6,69.0,30.08,NE,38,5.0,-999.0,82,-99.99,,,0.00,weatherlink.com 1.10,2013-11-30 17:58:00,
2013-11-30 13:12:00,73.3,69.0,30.08,NE,35,6.0,-999.0,85,-99.99,,,0.05,weatherlink.com 1.10,2013-11-30 18:12:00,
2013-11-30 13:27:00,-999.0,-99.9,30.07,North,-999,-999.0,-999.0,-999,-99.99,,,0.05,weatherlink.com 1.10,2013-11-30 18:27:00,
2013-11-30 13:42:00,72.0,69.0,30.06,NE,37,12.0,-999.0,89,-99.99,,,0.11,weatherlink.com 1.10,2013-11-30 18:42:00,
2013-11-30 13:57:00,-999.0,-99.9,30.05,North,-999,-999.0,-999.0,-999,-99.99,,,0.11,weatherlink.com 1.10,2013-11-30 18:57:00,
2013-11-30 14:12:00,71.1,68.0,30.04,North,360,10.0,-999.0,91,-99.99,,,0.11,weatherlink.com 1.10,2013-11-30 19:12:00,
2013-11-30 14:27:00,-999.0,-99.9,30.04,North,-999,-999.0,-999.0,-999,-99.99,,,0.11,weatherlink.com 1.10,2013-11-30 19:27:00,
2013-11-30 14:42:00,-999.0,-99.9,30.04,North,-999,-999.0,-999.0,-999,-99.99,,,0.11,weatherlink.com 1.10,2013-11-30 19:42:00,
2013-11-30 14:57:00,72.0,69.0,30.05,ENE,77,11.0,-999.0,90,-99.99,,,0.11,weatherlink.com 1.10,2013-11-30 19:57:00,
2013-11-30 15:12:00,73.9,69.0,30.05,NE,46,9.0,-999.0,85,-99.99,,,0.11,weatherlink.com 1.10,2013-11-30 20:12:00,
2013-11-30 15:27:00,74.4,68.0,30.05,NE,37,16.0,-999.0,81,-99.99,,,0.11,weatherlink.com 1.10,2013-11-30 20:27:00,
2013-11-30 15:42:00,74.9,68.0,30.05,East,84,6.0,-999.0,78,-99.99,,,0.11,weatherlink.com 1.10,2013-11-30 20:42:00,
2013-11-30 15:57:00,75.3,67.0,30.05,ENE,74,6.0,-999.0,76,-99.99,,,0.11,weatherlink.com 1.10,2013-11-30 20:57:00,
2013-11-30 16:27:00,75.3,67.0,30.05,ENE,68,10.0,-999.0,76,-99.99,,,0.11,weatherlink.com 1.10,2013-11-30 21:27:00,
2013-11-30 16:42:00,75.3,66.0,30.05,ENE,59,4.0,-999.0,73,-99.99,,,0.11,weatherlink.com 1.10,2013-11-30 21:42:00,
2013-11-30 16:57:00,75.1,65.0,30.05,NE,36,9.0,-999.0,71,-99.99,,,0.11,weatherlink.com 1.10,2013-11-30 21:57:00,
2013-11-30 17:12:00,75.3,65.0,30.05,NE,55,7.0,-999.0,71,-99.99,,,0.11,weatherlink.com 1.10,2013-11-30 22:12:00,
2013-11-30 17:27:00,-999.0,-99.9,30.05,North,-999,-999.0,-999.0,-999,-99.99,,,0.11,weatherlink.com 1.10,2013-11-30 22:27:00,
2013-11-30 17:42:00,-999.0,-99.9,30.05,North,-999,-999.0,-999.0,-999,-99.99,,,0.11,weatherlink.com 1.10,2013-11-30 22:42:00,
2013-11-30 17:57:00,-999.0,-99.9,30.05,North,-999,-999.0,-999.0,-999,-99.99,,,0.11,weatherlink.com 1.10,2013-11-30 22:57:00,
2013-11-30 18:12:00,-999.0,-99.9,30.05,North,-999,-999.0,-999.0,-999,-99.99,,,0.11,weatherlink.com 1.10,2013-11-30 23:12:00,
2013-11-30 18:27:00,-999.0,-99.9,30.05,North,-999,-999.0,-999.0,-999,-99.99,,,0.11,weatherlink.com 1.10,2013-11-30 23:27:00,
2013-11-30 18:42:00,-999.0,-99.9,30.05,North,-999,-999.0,-999.0,-999,-99.99,,,0.11,weatherlink.com 1.10,2013-11-30 23:42:00,
2013-11-30 19:12:00,-999.0,-99.9,30.05,North,-999,-999.0,-999.0,-999,-99.99,,,0.11,weatherlink.com 1.10,2013-12-01 00:12:00,
2013-11-30 19:27:00,-999.0,-99.9,30.05,North,-999,-999.0,-999.0,-999,-99.99,,,0.11,weatherlink.com 1.10,2013-12-01 00:27:00,
2013-11-30 19:42:00,-999.0,-99.9,30.07,North,-999,-999.0,-999.0,-999,-99.99,,,0.11,weatherlink.com 1.10,2013-12-01 00:42:00,
2013-11-30 19:57:00,-999.0,-99.9,30.07,North,-999,-999.0,-999.0,-999,-99.99,,,0.11,weatherlink.com 1.10,2013-12-01 00:57:00,
2013-11-30 20:12:00,-999.0,-99.9,30.07,North,-999,-999.0,-999.0,-999,-99.99,,,0.11,weatherlink.com 1.10,2013-12-01 01:12:00,
2013-11-30 20:27:00,-999.0,-99.9,30.07,North,-999,-999.0,-999.0,-999,-99.99,,,0.11,weatherlink.com 1.10,2013-12-01 01:27:00,
2013-11-30 20:44:00,-999.0,-99.9,30.07,North,-999,-999.0,-999.0,-999,-99.99,,,0.11,weatherlink.com 1.10,2013-12-01 01:44:00,
2013-11-30 20:57:00,-999.0,-99.9,30.07,North,-999,-999.0,-999.0,-999,-99.99,,,0.11,weatherlink.com 1.10,2013-12-01 01:57:00,
2013-11-30 21:12:00,-999.0,-99.9,30.07,North,-999,-999.0,-999.0,-999,-99.99,,,0.11,weatherlink.com 1.10,2013-12-01 02:12:00,
2013-11-30 21:27:00,-999.0,-99.9,30.07,North,-999,-999.0,-999.0,-999,-99.99,,,0.11,weatherlink.com 1.10,2013-12-01 02:27:00,
2013-11-30 21:42:00,-999.0,-99.9,30.07,North,-999,-999.0,-999.0,-999,-99.99,,,0.11,weatherlink.com 1.10,2013-12-01 02:42:00,
2013-11-30 21:57:00,-999.0,-99.9,30.07,North,-999,-999.0,-999.0,-999,-99.99,,,0.11,weatherlink.com 1.10,2013-12-01 02:57:00,
2013-11-30 22:12:00,-999.0,-99.9,30.07,North,-999,-999.0,-999.0,-999,-99.99,,,0.11,weatherlink.com 1.10,2013-12-01 03:12:00,
2013-11-30 22:27:00,-999.0,-99.9,30.06,North,-999,-999.0,-999.0,-999,-99.99,,,0.11,weatherlink.com 1.10,2013-12-01 03:27:00,
2013-11-30 22:42:00,-999.0,-99.9,30.05,North,-999,-999.0,-999.0,-999,-99.99,,,0.11,weatherlink.com 1.10,2013-12-01 03:42:00,
2013-11-30 22:57:00,-999.0,-99.9,30.05,North,-999,-999.0,-999.0,-999,-99.99,,,0.11,weatherlink.com 1.10,2013-12-01 03:57:00,
2013-11-30 23:12:00,-999.0,-99.9,30.05,North,-999,-999.0,-999.0,-999,-99.99,,,0.11,weatherlink.com 1.10,2013-12-01 04:12:00,
2013-11-30 23:27:00,-999.0,-99.9,30.05,North,-999,-999.0,-999.0,-999,-99.99,,,0.11,weatherlink.com 1.10,2013-12-01 04:27:00,
2013-11-30 23:42:00,-999.0,-99.9,30.04,North,-999,-999.0,-999.0,-999,-99.99,,,0.00,weatherlink.com 1.10,2013-12-01 04:42:00,
2013-11-30 23:57:00,-999.0,-99.9,30.04,North,-999,-999.0,-999.0,-999,-99.99,,,0.00,weatherlink.com 1.10,2013-12-01 04:57:00,